createdAt,value
2019-05-13T00:00:40.950Z,30.52
2019-05-13T00:03:13.836Z,28.23
2019-05-13T00:05:48.711Z,30.88
2019-05-13T00:08:21.888Z,27.58
2019-05-13T00:10:54.563Z,30.25
2019-05-13T00:13:26.800Z,28.30
2019-05-13T00:15:58.949Z,32.48
2019-05-13T00:18:31.065Z,25.97
2019-05-13T00:21:03.853Z,27.15
2019-05-13T00:23:36.943Z,28.02
2019-05-13T00:26:09.237Z,28.27
2019-05-13T00:28:41.355Z,27.77
2019-05-13T00:31:13.844Z,23.92
2019-05-13T00:33:47.383Z,28.40
2019-05-13T00:36:19.547Z,26.90
2019-05-13T00:38:53.415Z,27.53
2019-05-13T00:41:25.871Z,23.52
2019-05-13T00:43:58.087Z,29.42
2019-05-13T00:46:30.467Z,28.70
2019-05-13T00:49:04.583Z,32.63
2019-05-13T00:51:36.314Z,27.73
2019-05-13T00:54:08.442Z,25.90
2019-05-13T00:56:43.436Z,27.10
2019-05-13T00:59:14.447Z,26.25
2019-05-13T01:01:46.983Z,27.40
2019-05-13T01:04:18.986Z,26.47
2019-05-13T01:06:53.954Z,28.52
2019-05-13T01:09:26.169Z,29.50
2019-05-13T01:11:58.762Z,28.55
2019-05-13T01:14:33.984Z,26.43
2019-05-13T01:17:05.735Z,24.87
2019-05-13T01:19:37.845Z,26.23
2019-05-13T01:22:10.182Z,26.20
2019-05-13T01:24:44.161Z,27.25
2019-05-13T01:27:15.883Z,26.62
2019-05-13T01:29:47.997Z,26.20
2019-05-13T01:32:20.159Z,23.80
2019-05-13T01:34:53.861Z,27.48
2019-05-13T01:37:39.022Z,28.07
2019-05-13T01:39:59.402Z,25.55
2019-05-13T01:42:33.537Z,26.87
2019-05-13T01:45:05.235Z,25.77
2019-05-13T01:47:37.703Z,24.67
2019-05-13T01:50:10.382Z,25.62
2019-05-13T01:52:46.856Z,28.07
2019-05-13T01:55:20.325Z,27.70
2019-05-13T01:57:53.386Z,26.73
2019-05-13T02:00:25.602Z,24.40
2019-05-13T02:02:57.827Z,29.57
2019-05-13T02:05:29.860Z,25.32
2019-05-13T02:08:04.773Z,26.75
2019-05-13T02:10:38.267Z,25.95
2019-05-13T02:13:10.637Z,26.95
2019-05-13T02:15:45.117Z,27.62
2019-05-13T02:18:16.784Z,27.22
2019-05-13T02:20:49.671Z,26.20
2019-05-13T02:23:23.883Z,26.97
2019-05-13T02:25:55.892Z,23.00
2019-05-13T02:28:28.380Z,21.60
2019-05-13T02:31:00.604Z,20.35
2019-05-13T02:33:33.905Z,20.97
2019-05-13T02:36:06.414Z,24.25
2019-05-13T02:38:38.658Z,26.07
2019-05-13T02:41:13.506Z,26.97
2019-05-13T02:43:45.493Z,27.25
2019-05-13T02:46:17.951Z,25.70
2019-05-13T02:48:52.742Z,24.98
2019-05-13T02:51:23.717Z,27.65
2019-05-13T02:53:56.180Z,21.48
2019-05-13T02:56:28.293Z,21.82
2019-05-13T02:59:03.454Z,19.83
2019-05-13T03:01:33.961Z,21.02
2019-05-13T03:04:06.323Z,20.40
2019-05-13T03:06:38.586Z,19.15
2019-05-13T03:09:13.032Z,20.17
2019-05-13T03:11:45.285Z,18.55
2019-05-13T03:14:17.437Z,18.90
2019-05-13T03:16:52.535Z,18.53
2019-05-13T03:19:24.560Z,23.95
2019-05-13T03:21:56.798Z,22.32
2019-05-13T03:24:32.718Z,20.60
2019-05-13T03:27:02.798Z,19.92
2019-05-13T03:29:35.465Z,17.98
2019-05-13T03:32:07.864Z,24.90
2019-05-13T03:34:44.428Z,20.80
2019-05-13T03:37:15.926Z,17.35
2019-05-13T03:39:48.003Z,18.10
2019-05-13T03:42:22.554Z,18.10
2019-05-13T03:44:53.769Z,18.62
2019-05-13T03:47:27.080Z,17.50
2019-05-13T03:50:03.578Z,17.70
2019-05-13T03:52:34.649Z,15.13
2019-05-13T03:55:08.361Z,16.27
2019-05-13T03:57:42.606Z,14.73
2019-05-13T04:00:15.144Z,15.28
2019-05-13T04:02:47.477Z,15.40
2019-05-13T04:05:22.889Z,12.75
2019-05-13T04:07:53.085Z,11.90
2019-05-13T04:10:27.200Z,12.27
2019-05-13T04:13:03.305Z,15.08
2019-05-13T04:15:33.167Z,12.40
2019-05-13T04:18:05.478Z,14.98
2019-05-13T04:20:37.673Z,15.03
2019-05-13T04:23:12.570Z,11.53
2019-05-13T04:25:44.770Z,12.82
2019-05-13T04:28:17.174Z,14.53
2019-05-13T04:30:52.374Z,15.90
2019-05-13T04:33:23.345Z,14.33
2019-05-13T04:35:55.672Z,12.33
2019-05-13T04:38:27.900Z,15.23
2019-05-13T04:41:03.148Z,15.50
2019-05-13T04:43:34.872Z,11.97
2019-05-13T04:46:07.180Z,14.87
2019-05-13T04:48:43.560Z,16.47
2019-05-13T04:51:13.787Z,15.23
2019-05-13T04:53:46.037Z,16.52
2019-05-13T04:56:22.143Z,16.73
2019-05-13T04:58:53.008Z,16.65
2019-05-13T05:01:28.244Z,20.40
2019-05-13T05:04:03.625Z,19.20
2019-05-13T05:06:38.568Z,20.05
2019-05-13T05:09:13.548Z,15.93
2019-05-13T05:11:49.167Z,19.95
2019-05-13T05:14:25.807Z,18.77
2019-05-13T05:17:02.921Z,19.90
2019-05-13T05:19:35.951Z,14.47
2019-05-13T05:22:13.292Z,16.87
2019-05-13T05:24:47.743Z,15.83
2019-05-13T05:27:22.739Z,18.73
2019-05-13T05:29:58.736Z,15.65
2019-05-13T05:32:35.946Z,17.20
2019-05-13T05:35:11.667Z,17.65
2019-05-13T05:37:45.547Z,13.13
2019-05-13T05:40:28.981Z,17.23
2019-05-13T05:42:51.846Z,18.57
2019-05-13T05:45:24.279Z,13.63
2019-05-13T05:47:56.456Z,13.72
2019-05-13T05:50:31.807Z,14.65
2019-05-13T05:53:02.740Z,13.83
2019-05-13T05:55:36.800Z,12.00
2019-05-13T05:58:09.137Z,12.88
2019-05-13T06:00:41.639Z,13.05
2019-05-13T06:03:14.095Z,12.37
2019-05-13T06:05:46.325Z,11.85
2019-05-13T06:08:18.486Z,13.70
2019-05-13T06:10:53.545Z,13.22
2019-05-13T06:13:26.159Z,13.03
2019-05-13T06:15:58.508Z,15.28
2019-05-13T06:18:32.610Z,17.95
2019-05-13T06:21:04.338Z,16.65
2019-05-13T06:23:36.650Z,20.30
2019-05-13T06:26:08.888Z,17.65
2019-05-13T06:28:41.563Z,14.70
2019-05-13T06:31:13.929Z,16.00
2019-05-13T06:33:46.218Z,16.17
2019-05-13T06:36:18.584Z,13.40
2019-05-13T06:38:51.322Z,14.98
2019-05-13T06:41:23.551Z,17.10
2019-05-13T06:43:55.951Z,18.40
2019-05-13T06:46:28.264Z,21.25
2019-05-13T06:49:02.689Z,16.25
2019-05-13T06:51:34.251Z,13.95
2019-05-13T06:54:06.418Z,15.93
2019-05-13T06:56:38.595Z,16.02
2019-05-13T06:59:11.910Z,18.20
2019-05-13T07:01:44.316Z,16.70
2019-05-13T07:04:16.611Z,18.67
2019-05-13T07:06:51.484Z,21.85
2019-05-13T07:09:22.507Z,19.82
2019-05-13T07:11:56.896Z,19.20
2019-05-13T07:14:28.036Z,16.45
2019-05-13T07:17:02.030Z,16.77
2019-05-13T07:19:33.767Z,16.37
2019-05-13T07:22:06.078Z,18.98
2019-05-13T07:24:38.375Z,20.17
2019-05-13T07:27:12.285Z,21.03
2019-05-13T07:29:46.029Z,19.27
2019-05-13T07:32:21.944Z,23.80
2019-05-13T07:34:53.424Z,20.40
2019-05-13T07:37:26.172Z,21.43
2019-05-13T07:40:02.333Z,18.70
2019-05-13T07:42:33.390Z,17.80
2019-05-13T07:45:06.698Z,16.42
2019-05-13T07:47:41.491Z,19.40
2019-05-13T07:50:12.961Z,20.85
2019-05-13T07:52:46.139Z,22.30
2019-05-13T07:55:18.449Z,24.35
2019-05-13T07:57:51.521Z,18.77
2019-05-13T08:00:24.681Z,23.20
2019-05-13T08:02:57.077Z,20.32
2019-05-13T08:05:31.304Z,18.87
2019-05-13T08:08:02.880Z,19.82
2019-05-13T08:10:36.135Z,18.00
2019-05-13T08:13:08.423Z,23.57
2019-05-13T08:15:42.180Z,20.35
2019-05-13T08:18:14.495Z,22.77
2019-05-13T08:20:46.840Z,17.00
2019-05-13T08:23:21.535Z,16.12
2019-05-13T08:25:52.713Z,20.37
2019-05-13T08:28:25.071Z,18.30
2019-05-13T08:30:57.673Z,27.00
2019-05-13T08:33:31.904Z,19.27
2019-05-13T08:36:03.298Z,12.53
2019-05-13T08:38:35.334Z,12.73
2019-05-13T08:41:09.819Z,22.22
2019-05-13T08:43:41.893Z,13.08
2019-05-13T08:46:15.135Z,22.98
2019-05-13T08:48:47.264Z,19.87
2019-05-13T08:51:21.926Z,17.90
2019-05-13T08:53:53.081Z,16.52
2019-05-13T08:56:26.016Z,14.40
2019-05-13T08:58:58.252Z,17.20
2019-05-13T09:01:32.033Z,19.00
2019-05-13T09:04:05.468Z,18.73
2019-05-13T09:06:37.765Z,18.07
2019-05-13T09:09:11.621Z,19.87
2019-05-13T09:11:44.033Z,17.13
2019-05-13T09:14:16.410Z,13.62
2019-05-13T09:16:48.839Z,14.85
2019-05-13T09:19:21.617Z,16.37
2019-05-13T09:21:53.866Z,15.90
2019-05-13T09:24:33.144Z,14.63
2019-05-13T09:27:01.714Z,14.40
2019-05-13T09:29:33.049Z,18.60
2019-05-13T09:32:05.297Z,13.83
2019-05-13T09:34:38.452Z,12.73
2019-05-13T09:37:11.874Z,16.48
2019-05-13T09:39:44.201Z,13.85
2019-05-13T09:42:16.376Z,21.82
2019-05-13T09:44:48.720Z,18.45
2019-05-13T09:47:21.677Z,14.98
2019-05-13T09:49:54.601Z,14.98
2019-05-13T09:52:26.764Z,17.80
2019-05-13T09:54:58.973Z,18.85
2019-05-13T09:57:32.162Z,18.00
2019-05-13T10:00:06.975Z,15.75
2019-05-13T10:02:39.417Z,14.28
2019-05-13T10:05:11.701Z,17.47
2019-05-13T10:07:44.149Z,16.77
2019-05-13T10:10:16.427Z,17.95
2019-05-13T10:13:07.393Z,15.65
2019-05-13T10:15:23.022Z,16.27
2019-05-13T10:17:55.070Z,13.20
2019-05-13T10:20:32.218Z,15.55
2019-05-13T10:23:04.001Z,17.87
2019-05-13T10:25:36.187Z,17.97
2019-05-13T10:28:08.445Z,20.50
2019-05-13T10:30:43.664Z,20.12
2019-05-13T10:33:15.499Z,25.92
2019-05-13T10:35:48.176Z,20.62
2019-05-13T10:38:22.760Z,19.17
2019-05-13T10:40:54.523Z,17.48
2019-05-13T10:43:31.413Z,20.15
2019-05-13T10:46:02.551Z,24.07
2019-05-13T10:48:34.127Z,18.87
2019-05-13T10:51:06.807Z,31.02
2019-05-13T10:53:39.088Z,21.27
2019-05-13T10:56:11.123Z,21.20
2019-05-13T10:58:43.822Z,21.50
2019-05-13T11:01:16.048Z,21.93
2019-05-13T11:03:48.479Z,25.57
2019-05-13T11:06:21.963Z,22.55
2019-05-13T11:08:54.397Z,24.18
2019-05-13T11:11:26.930Z,25.70
2019-05-13T11:14:06.774Z,22.58
2019-05-13T11:16:32.470Z,22.82
2019-05-13T11:19:04.625Z,25.35
2019-05-13T11:21:36.870Z,23.38
2019-05-13T11:24:11.793Z,34.85
2019-05-13T11:26:42.512Z,29.87
2019-05-13T11:29:14.563Z,27.65
2019-05-13T11:31:47.011Z,24.82
2019-05-13T11:34:21.609Z,22.85
2019-05-13T11:36:53.451Z,27.13
2019-05-13T11:39:26.044Z,29.12
2019-05-13T11:41:58.208Z,28.32
2019-05-13T11:44:32.243Z,30.08
2019-05-13T11:47:04.178Z,38.13
2019-05-13T11:49:36.469Z,32.63
2019-05-13T11:52:08.710Z,45.50
2019-05-13T11:54:42.473Z,26.12
2019-05-13T11:57:15.745Z,30.57
2019-05-13T11:59:47.959Z,27.95
2019-05-13T12:02:23.145Z,35.55
2019-05-13T12:04:55.045Z,33.58
2019-05-13T12:07:28.452Z,34.60
2019-05-13T12:10:02.639Z,30.80
2019-05-13T12:12:34.777Z,33.53
2019-05-13T12:15:35.587Z,40.52
2019-05-13T12:17:42.920Z,32.38
2019-05-13T12:20:15.492Z,35.75
2019-05-13T12:22:48.048Z,31.25
2019-05-13T12:25:22.421Z,28.85
2019-05-13T12:27:53.621Z,28.87
2019-05-13T12:30:26.211Z,29.67
2019-05-13T12:32:58.787Z,31.73
2019-05-13T12:35:32.826Z,31.82
2019-05-13T12:38:05.145Z,28.47
2019-05-13T12:40:37.383Z,26.93
2019-05-13T12:43:12.616Z,23.95
2019-05-13T12:45:43.384Z,22.42
2019-05-13T12:48:15.642Z,26.75
2019-05-13T12:50:48.034Z,22.62
2019-05-13T12:53:22.112Z,26.15
2019-05-13T12:55:57.171Z,26.80
2019-05-13T12:58:27.567Z,27.75
2019-05-13T13:01:01.474Z,26.13
2019-05-13T13:03:34.516Z,22.70
2019-05-13T13:08:48.363Z,25.57
2019-05-13T13:11:14.326Z,25.72
2019-05-13T13:13:59.092Z,24.90
2019-05-13T13:16:20.576Z,27.70
2019-05-13T13:18:54.573Z,22.27
2019-05-13T13:21:33.551Z,25.10
2019-05-13T13:24:04.452Z,25.60
2019-05-13T13:26:34.061Z,32.97
2019-05-13T13:29:06.110Z,25.25
2019-05-13T13:31:38.261Z,25.88
2019-05-13T13:34:16.454Z,27.80
2019-05-13T13:36:45.945Z,30.37
2019-05-13T13:39:17.656Z,26.48
2019-05-13T13:41:53.504Z,24.82
2019-05-13T13:44:24.523Z,26.23
2019-05-13T13:46:57.727Z,26.12
2019-05-13T13:49:34.519Z,30.20
2019-05-13T13:52:03.490Z,24.12
2019-05-13T13:54:35.689Z,29.90
2019-05-13T13:57:08.031Z,28.12
2019-05-13T14:00:14.815Z,29.40
2019-05-13T14:02:13.835Z,30.00
2019-05-13T14:04:46.364Z,35.85
2019-05-13T14:07:33.472Z,36.40
2019-05-13T14:09:52.365Z,39.78
2019-05-13T14:12:24.625Z,40.95
2019-05-13T14:14:57.210Z,44.18
2019-05-13T14:17:31.266Z,34.18
2019-05-13T14:20:04.365Z,32.38
2019-05-13T14:22:37.038Z,28.87
2019-05-13T14:25:11.336Z,24.32
2019-05-13T14:27:43.974Z,23.77
2019-05-13T14:30:16.197Z,18.45
2019-05-13T14:32:48.435Z,23.83
2019-05-13T14:35:22.032Z,24.50
2019-05-13T14:37:54.552Z,15.72
2019-05-13T14:40:26.719Z,13.37
2019-05-13T14:42:58.789Z,12.03
2019-05-13T14:45:31.852Z,13.48
2019-05-13T14:48:04.234Z,9.97
2019-05-13T14:50:36.468Z,6.80
2019-05-13T14:53:08.634Z,7.03
2019-05-13T14:55:41.924Z,8.83
2019-05-13T14:58:15.390Z,10.40
2019-05-13T15:00:47.508Z,10.30
2019-05-13T15:03:21.592Z,12.35
2019-05-13T15:05:53.283Z,12.80
2019-05-13T15:08:25.998Z,16.40
2019-05-13T15:10:58.511Z,21.60
2019-05-13T15:13:32.061Z,21.70
2019-05-13T15:16:04.442Z,17.62
2019-05-13T15:18:36.695Z,23.30
2019-05-13T15:21:09.208Z,17.12
2019-05-13T15:23:44.144Z,18.40
2019-05-13T15:26:16.407Z,20.90
2019-05-13T15:28:48.730Z,15.65
2019-05-13T15:31:22.103Z,18.15
2019-05-13T15:33:54.640Z,16.70
2019-05-13T15:36:26.756Z,12.88
2019-05-13T15:39:01.203Z,10.23
2019-05-13T15:41:32.706Z,13.03
2019-05-13T15:44:05.137Z,15.05
2019-05-13T15:46:37.138Z,15.00
2019-05-13T15:49:09.322Z,20.25
2019-05-13T15:51:42.193Z,20.17
2019-05-13T15:54:15.767Z,12.18
2019-05-13T15:56:48.095Z,18.75
2019-05-13T15:59:21.592Z,9.95
2019-05-13T16:01:53.978Z,6.65
2019-05-13T16:04:26.505Z,12.30
2019-05-13T16:06:58.834Z,13.30
2019-05-13T16:09:31.776Z,11.28
2019-05-13T16:12:03.941Z,12.47
2019-05-13T16:14:36.318Z,12.82
2019-05-13T16:17:08.427Z,9.17
2019-05-13T16:19:41.995Z,7.00
2019-05-13T16:22:14.284Z,5.92
2019-05-13T16:24:46.371Z,8.35
2019-05-13T16:27:18.612Z,7.90
2019-05-13T16:29:51.665Z,8.10
2019-05-13T16:32:23.993Z,7.97
2019-05-13T16:34:56.078Z,8.35
2019-05-13T16:37:28.305Z,7.00
2019-05-13T16:40:00.593Z,9.65
2019-05-13T16:42:32.717Z,10.68
2019-05-13T16:45:04.899Z,12.65
2019-05-13T16:47:37.140Z,7.75
2019-05-13T16:50:11.455Z,6.85
2019-05-13T16:52:43.752Z,10.18
2019-05-13T16:55:16.012Z,13.13
2019-05-13T16:57:48.136Z,8.68
2019-05-13T17:00:20.428Z,7.95
2019-05-13T17:02:52.574Z,8.93
2019-05-13T17:05:24.726Z,10.35
2019-05-13T17:07:56.771Z,14.10
2019-05-13T17:10:31.394Z,8.80
2019-05-13T17:13:03.069Z,9.18
2019-05-13T17:15:35.544Z,7.70
2019-05-13T17:18:11.876Z,7.70
2019-05-13T17:20:41.487Z,9.18
2019-05-13T17:23:13.598Z,9.23
2019-05-13T17:25:45.909Z,8.33
2019-05-13T17:28:18.568Z,9.60
2019-05-13T17:30:51.996Z,9.10
2019-05-13T17:33:24.147Z,9.73
2019-05-13T17:35:56.457Z,7.50
2019-05-13T17:38:28.608Z,7.00
2019-05-13T17:41:02.235Z,7.03
2019-05-13T17:43:34.578Z,7.87
2019-05-13T17:46:07.011Z,9.85
2019-05-13T17:48:41.567Z,23.30
2019-05-13T17:51:13.884Z,10.72
2019-05-13T17:53:46.326Z,9.18
2019-05-13T17:56:18.546Z,12.55
2019-05-13T17:58:50.692Z,15.95
2019-05-13T18:01:22.909Z,10.78
2019-05-13T18:03:55.107Z,14.95
2019-05-13T18:06:28.418Z,11.00
2019-05-13T18:09:01.229Z,9.08
2019-05-13T18:11:34.257Z,10.00
2019-05-13T18:14:06.786Z,10.95
2019-05-13T18:16:41.742Z,9.13
2019-05-13T18:19:12.501Z,11.17
2019-05-13T18:21:44.663Z,8.35
2019-05-13T18:24:16.852Z,10.05
2019-05-13T18:26:51.943Z,17.20
2019-05-13T18:29:23.073Z,17.75
2019-05-13T18:31:55.126Z,12.45
2019-05-13T18:34:27.376Z,11.90
2019-05-13T18:37:02.439Z,9.18
2019-05-13T18:39:34.069Z,15.15
2019-05-13T18:42:06.153Z,10.28
2019-05-13T18:44:38.379Z,12.53
2019-05-13T18:47:12.091Z,14.25
2019-05-13T18:49:43.807Z,12.90
2019-05-13T18:52:15.987Z,12.53
2019-05-13T18:54:48.181Z,13.63
2019-05-13T18:57:21.298Z,9.55
2019-05-13T18:59:53.387Z,6.92
2019-05-13T19:02:25.439Z,7.70
2019-05-13T19:04:57.547Z,11.73
2019-05-13T19:07:31.543Z,17.10
2019-05-13T19:10:04.531Z,11.40
2019-05-13T19:12:37.278Z,15.80
2019-05-13T19:15:11.181Z,10.08
2019-05-13T19:17:43.975Z,11.80
2019-05-13T19:20:16.546Z,12.55
2019-05-13T19:22:48.888Z,12.47
2019-05-13T19:25:21.102Z,12.97
2019-05-13T19:27:53.294Z,13.35
2019-05-13T19:30:25.724Z,10.98
2019-05-13T19:32:58.181Z,12.47
2019-05-13T19:35:32.160Z,9.18
2019-05-13T19:38:03.992Z,11.50
2019-05-13T19:40:36.401Z,11.10
2019-05-13T19:43:08.780Z,9.73
2019-05-13T19:45:41.652Z,10.28
2019-05-13T19:48:13.912Z,8.60
2019-05-13T19:50:45.994Z,15.50
2019-05-13T19:53:18.063Z,10.98
2019-05-13T19:55:51.867Z,10.58
2019-05-13T19:58:23.592Z,13.32
2019-05-13T20:00:55.872Z,10.45
2019-05-13T20:03:27.945Z,11.65
2019-05-13T20:06:01.929Z,11.28
2019-05-13T20:08:33.498Z,10.28
2019-05-13T20:11:05.736Z,10.25
2019-05-13T20:13:37.992Z,14.20
2019-05-13T20:16:11.721Z,11.68
2019-05-13T20:18:43.630Z,13.95
2019-05-13T20:21:15.677Z,12.00
2019-05-13T20:23:47.832Z,11.55
2019-05-13T20:26:21.692Z,11.95
2019-05-13T20:28:54.005Z,8.33
2019-05-13T20:31:26.205Z,11.88
2019-05-13T20:33:58.375Z,14.30
2019-05-13T20:36:31.479Z,10.70
2019-05-13T20:39:03.988Z,13.32
2019-05-13T20:41:36.099Z,11.20
2019-05-13T20:44:08.471Z,12.63
2019-05-13T20:46:42.293Z,10.17
2019-05-13T20:49:14.305Z,15.75
2019-05-13T20:51:46.549Z,15.03
2019-05-13T20:54:18.733Z,11.33
2019-05-13T20:56:51.767Z,12.37
2019-05-13T20:59:25.028Z,11.43
2019-05-13T21:01:57.258Z,10.80
2019-05-13T21:04:29.389Z,15.30
2019-05-13T21:07:02.098Z,10.85
2019-05-13T21:09:34.665Z,13.88
2019-05-13T21:12:06.918Z,13.62
2019-05-13T21:14:41.331Z,13.10
2019-05-13T21:17:13.118Z,12.37
2019-05-13T21:19:45.395Z,9.60
2019-05-13T21:22:17.607Z,11.30
2019-05-13T21:24:51.384Z,9.85
2019-05-13T21:27:23.707Z,9.20
2019-05-13T21:29:56.002Z,10.98
2019-05-13T21:32:28.334Z,8.77
2019-05-13T21:35:01.862Z,13.35
2019-05-13T21:37:34.253Z,12.78
2019-05-13T21:40:08.120Z,13.20
2019-05-13T21:42:41.943Z,13.62
2019-05-13T21:45:14.167Z,14.75
2019-05-13T21:47:46.228Z,15.38
2019-05-13T21:50:31.120Z,13.78
2019-05-13T21:52:51.849Z,11.00
2019-05-13T21:55:25.036Z,10.60
2019-05-13T21:57:57.185Z,12.95
2019-05-13T22:00:32.215Z,10.28
2019-05-13T22:03:05.430Z,11.10
2019-05-13T22:05:37.786Z,17.93
2019-05-13T22:08:12.032Z,12.50
2019-05-13T22:10:43.602Z,12.67
2019-05-13T22:13:15.732Z,14.70
2019-05-13T22:15:48.006Z,9.95
2019-05-13T22:18:20.291Z,13.88
2019-05-13T22:20:53.636Z,13.23
2019-05-13T22:23:25.873Z,15.33
2019-05-13T22:25:58.114Z,14.47
2019-05-13T22:28:31.255Z,15.28
2019-05-13T22:31:03.603Z,15.15
2019-05-13T22:33:35.720Z,11.30
2019-05-13T22:36:07.900Z,13.53
2019-05-13T22:38:42.618Z,13.38
2019-05-13T22:41:15.092Z,15.23
2019-05-13T22:43:55.601Z,15.85
2019-05-13T22:46:21.425Z,14.28
2019-05-13T22:48:53.853Z,15.45
2019-05-13T22:51:25.976Z,12.45
2019-05-13T22:53:58.034Z,15.90
2019-05-13T22:56:31.798Z,13.53
2019-05-13T22:59:03.848Z,12.83
2019-05-13T23:01:36.192Z,15.93
2019-05-13T23:04:08.491Z,18.62
2019-05-13T23:06:40.662Z,21.52
2019-05-13T23:09:12.767Z,17.42
2019-05-13T23:11:45.040Z,16.45
2019-05-13T23:14:17.462Z,17.87
2019-05-13T23:16:50.149Z,20.70
2019-05-13T23:19:22.499Z,18.48
2019-05-13T23:21:54.878Z,20.25
2019-05-13T23:24:27.146Z,20.35
2019-05-13T23:27:01.927Z,16.42
2019-05-13T23:29:33.401Z,17.25
2019-05-13T23:32:05.798Z,14.80
2019-05-13T23:34:39.153Z,15.48
2019-05-13T23:37:11.511Z,15.60
2019-05-13T23:39:43.836Z,16.15
2019-05-13T23:42:16.105Z,15.73
2019-05-13T23:44:48.389Z,11.85
2019-05-13T23:47:21.808Z,11.50
2019-05-13T23:49:54.017Z,14.78
2019-05-13T23:52:26.150Z,10.58
2019-05-13T23:54:58.431Z,14.63
2019-05-13T23:57:43.860Z,8.83
